Accueil
METAR-TAF:

METAR-TAF

Aéroports :

Alice Springs, Australie

Aéroport d'Alice Springs

latitude: 23-48S, longitude: 133-53E, altitude: 545 m

Observation

Le bulletin a été fait il y a 41 minutes, à 00:00 UTC
Vent 10 kt de nord
Température 34°C
Humidité 18%
Pression 1007 hPa
Visibilité 10 km ou plus
pas de nuages en-dessous de 1500 mètres et pas de cumulonimbus.

METAR: YBAS 220000Z 01010KT CAVOK 34/06 Q1007

Heure: 10:11 (00:41 UTC)

Prévision

Le bulletin a été fait il y a 1 heure et 14 minutes, à 23:27 UTC
Prévision valable du 22 à 00 UTC au 22 à 24 UTC
Vent 8 kt de sud-ouest
Visibilité 10 km ou plus
pas de nuages en-dessous de 1500 mètres et pas de cumulonimbus.

TAF: YBAS 212327Z 2200/2224 22008KT CAVOK

Observations et prévisions météorologiques de plus de 4000 aéroports (messages METAR et TAF).

Les stations disponibles sont représentées par des disques jaunes et rouges sur la carte.

Passer la souris dessus pour voir le nom de la station.

Cliquer dessus pour voir les observations et prévisions météorologiques.

Pour changer de carte: cliquez sur les boutons verts avec une croix noire pour zoomer, sur le bouton vert avec un tiret pour effectuer un zoom arrière, ou sur les flèches vertes pour les cartes adjacentes.


METAR-TAF: